Time;durP1;ratioP1;P1;durP2;ratioP2;P2;SDS_P1;SDS_P2;PMS_P1;PMS_P2;Temp;Humidity;BMP_temperature;BMP_pressure;BME280_temperature;BME280_humidity;BME280_pressure;Samples;Min_cycle;Max_cycle;Signal;HPM_P1;HPM_P2
2022/09/14 00:03:14;;;;;;;8.93;2.53;;;;;;;15.58;82.45;100887.22;10589447;28;20486;-70
2022/09/14 00:08:14;;;;;;;2.25;1.73;;;;;;;15.54;83.34;100891.47;10589157;28;20019;-70
2022/09/14 00:13:14;;;;;;;4.70;2.03;;;;;;;15.49;83.14;100878.50;10588907;28;20036;-70
2022/09/14 00:18:15;;;;;;;3.95;1.63;;;;;;;15.51;83.14;100887.31;10571766;28;20031;-71
2022/09/14 00:23:15;;;;;;;2.42;1.70;;;;;;;15.52;82.97;100888.97;10570785;28;20039;-70
2022/09/14 00:28:16;;;;;;;4.00;1.73;;;;;;;15.53;82.54;100879.72;10572527;28;20038;-71
2022/09/14 00:33:16;;;;;;;5.32;2.05;;;;;;;15.55;83.14;100874.03;10595487;28;20054;-71
2022/09/14 00:38:17;;;;;;;4.53;1.83;;;;;;;15.45;83.63;100869.13;10572600;28;20498;-70
2022/09/14 00:43:17;;;;;;;11.45;2.15;;;;;;;15.49;83.49;100867.59;10588508;28;20062;-71
2022/09/14 00:48:18;;;;;;;10.23;2.90;;;;;;;15.51;84.30;100859.19;10589738;28;20096;-71
2022/09/14 00:53:18;;;;;;;7.15;2.17;;;;;;;15.51;84.23;100848.28;10558003;28;20040;-71
2022/09/14 00:58:19;;;;;;;9.15;2.65;;;;;;;15.56;83.69;100840.22;10586585;28;20043;-71
2022/09/14 01:03:20;;;;;;;6.45;1.98;;;;;;;15.56;83.65;100829.28;10568285;28;20030;-71
2022/09/14 01:08:42;;;;;;;2.53;1.42;;;;;;;15.55;84.22;100822.19;10586247;28;20122;-71
2022/09/14 01:13:45;;;;;;;7.38;2.47;;;;;;;15.53;83.87;100818.84;10587190;28;20039;-71
2022/09/14 01:18:56;;;;;;;3.78;2.20;;;;;;;15.51;84.00;100810.91;10586535;28;20028;-71
2022/09/14 01:24:11;;;;;;;2.63;2.22;;;;;;;15.48;84.73;100797.72;10534521;28;20031;-70
2022/09/14 01:29:24;;;;;;;3.60;2.03;;;;;;;15.45;84.63;100792.72;10569015;28;20462;-70
2022/09/14 01:34:52;;;;;;;6.22;2.20;;;;;;;15.47;85.23;100804.22;10568161;28;20032;-71
2022/09/14 01:39:59;;;;;;;5.25;2.13;;;;;;;15.40;87.88;100797.19;10585531;28;20439;-70
2022/09/14 01:45:00;;;;;;;4.05;1.83;;;;;;;15.42;86.50;100792.34;10566969;28;20052;-70
2022/09/14 01:50:10;;;;;;;6.93;1.88;;;;;;;15.48;85.50;100792.25;10551005;28;20035;-70
2022/09/14 01:55:17;;;;;;;6.68;1.88;;;;;;;15.49;85.73;100785.72;10566203;28;20064;-71
2022/09/14 02:00:20;;;;;;;1.25;1.05;;;;;;;15.54;85.90;100783.13;10550593;28;20054;-71
2022/09/14 02:05:46;;;;;;;5.90;1.67;;;;;;;15.54;85.90;100780.41;10566653;28;20028;-70
2022/09/14 02:10:47;;;;;;;3.33;2.55;;;;;;;15.52;86.34;100771.63;10568006;28;20375;-71
2022/09/14 02:15:47;;;;;;;6.80;2.53;;;;;;;15.51;86.36;100772.69;10532265;28;20024;-71
2022/09/14 02:20:53;;;;;;;10.05;3.15;;;;;;;15.47;86.60;100773.38;10565668;28;20065;-71
2022/09/14 02:25:54;;;;;;;3.33;2.22;;;;;;;15.38;89.40;100769.31;10567164;28;20063;-70
2022/09/14 02:31:10;;;;;;;6.15;1.95;;;;;;;15.31;89.98;100762.03;10583884;28;20463;-70
2022/09/14 02:36:34;;;;;;;12.48;2.72;;;;;;;15.19;90.37;100738.53;10549416;28;20461;-69
2022/09/14 02:41:44;;;;;;;2.28;1.92;;;;;;;15.21;89.34;100734.50;10557477;28;20057;-70
2022/09/14 02:46:52;;;;;;;3.28;2.75;;;;;;;15.26;90.52;100742.84;10583549;28;20028;-70
2022/09/14 02:52:13;;;;;;;5.78;2.38;;;;;;;15.27;89.21;100746.38;10582067;28;20032;-71
2022/09/14 02:57:14;;;;;;;5.45;2.22;;;;;;;15.24;88.44;100728.59;10549329;28;20088;-70
2022/09/14 03:02:14;;;;;;;3.53;1.80;;;;;;;15.31;88.60;100728.47;10565658;28;20024;-70
2022/09/14 03:07:15;;;;;;;5.63;1.88;;;;;;;15.33;88.68;100723.63;10582064;28;20035;-70
2022/09/14 03:12:15;;;;;;;4.20;2.28;;;;;;;15.30;89.30;100719.47;10564528;28;20044;-70
2022/09/14 03:17:16;;;;;;;1.65;1.55;;;;;;;15.30;89.09;100711.28;10563785;28;20035;-70
2022/09/14 03:22:16;;;;;;;2.53;1.92;;;;;;;15.30;89.93;100696.81;10563549;28;20031;-70
2022/09/14 03:27:16;;;;;;;5.82;2.40;;;;;;;15.27;90.22;100697.28;10583406;28;20118;-71
2022/09/14 03:32:17;;;;;;;3.28;2.83;;;;;;;15.29;90.28;100695.16;10583453;28;20035;-70
2022/09/14 03:37:17;;;;;;;2.70;2.28;;;;;;;15.32;91.53;100689.25;10548096;28;20039;-70
2022/09/14 03:42:18;;;;;;;3.60;2.17;;;;;;;15.28;90.57;100679.84;10581290;28;20411;-70
2022/09/14 03:47:18;;;;;;;5.90;1.83;;;;;;;15.29;90.40;100676.91;10563182;28;20126;-71
2022/09/14 03:52:18;;;;;;;2.83;1.98;;;;;;;15.29;91.25;100681.53;10581389;28;20089;-70
2022/09/14 03:57:19;;;;;;;4.47;2.25;;;;;;;15.35;90.17;100686.03;10581417;28;20027;-70
2022/09/14 04:02:19;;;;;;;1.15;1.15;;;;;;;15.36;90.56;100690.44;10564463;28;20028;-70
2022/09/14 04:07:20;;;;;;;7.97;2.45;;;;;;;15.37;89.86;100689.34;10562760;28;20054;-69
2022/09/14 04:12:20;;;;;;;5.35;1.92;;;;;;;15.43;90.12;100707.53;10579324;28;20498;-70
2022/09/14 04:17:24;;;;;;;1.20;1.20;;;;;;;15.46;89.72;100698.88;10581856;28;20039;-70
2022/09/14 04:22:24;;;;;;;2.55;2.13;;;;;;;15.57;89.94;100697.22;10589524;28;20035;-69
2022/09/14 04:27:24;;;;;;;0.70;0.70;;;;;;;15.60;90.50;100702.19;10588508;28;20043;-70
2022/09/14 04:32:25;;;;;;;2.42;1.50;;;;;;;15.65;90.97;100693.31;10588390;28;20043;-71
2022/09/14 04:37:25;;;;;;;7.80;1.83;;;;;;;15.68;91.27;100696.44;10588515;28;20093;-70
2022/09/14 04:42:25;;;;;;;5.38;1.60;;;;;;;15.64;90.97;100689.75;10570300;28;20498;-70
2022/09/14 04:47:27;;;;;;;10.27;1.52;;;;;;;15.63;90.06;100687.25;10588124;28;20035;-70
2022/09/14 04:52:27;;;;;;;4.57;1.10;;;;;;;15.58;90.47;100677.88;10569905;28;20035;-68
2022/09/14 04:57:28;;;;;;;5.18;2.42;;;;;;;15.55;90.43;100681.09;10588531;28;20074;-72
2022/09/14 05:02:30;;;;;;;2.47;1.20;;;;;;;15.50;90.83;100667.31;10587955;28;20032;-71
2022/09/14 05:07:31;;;;;;;7.85;2.05;;;;;;;15.42;92.56;100664.09;10588905;28;20035;-72
2022/09/14 05:12:31;;;;;;;9.25;2.17;;;;;;;15.45;91.35;100680.00;10586742;28;20106;-73
2022/09/14 05:17:34;;;;;;;1.85;1.10;;;;;;;15.43;90.24;100677.50;10569689;28;20047;-71
2022/09/14 05:22:35;;;;;;;9.43;2.13;;;;;;;15.45;89.88;100675.38;10586554;28;20478;-70
2022/09/14 05:27:35;;;;;;;4.38;1.55;;;;;;;15.37;90.95;100667.53;10587203;28;20038;-70
2022/09/14 05:32:36;;;;;;;3.92;1.73;;;;;;;15.41;91.24;100671.47;10584782;28;20115;-70
2022/09/14 05:37:36;;;;;;;11.93;2.17;;;;;;;15.40;92.45;100663.50;10568923;28;20028;-70
2022/09/14 05:42:36;;;;;;;1.70;1.02;;;;;;;15.41;92.26;100668.75;10586036;28;20077;-71
2022/09/14 05:47:37;;;;;;;1.95;1.85;;;;;;;15.49;91.31;100682.03;10585014;28;20043;-71
2022/09/14 05:52:37;;;;;;;7.05;1.48;;;;;;;15.52;91.34;100678.00;10582952;28;20028;-71
2022/09/14 05:57:38;;;;;;;12.68;2.30;;;;;;;15.49;94.20;100676.56;10584011;28;20039;-72
2022/09/14 06:02:39;;;;;;;3.50;1.73;;;;;;;15.48;96.30;100676.81;10585214;28;20042;-71
2022/09/14 06:07:39;;;;;;;5.43;1.88;;;;;;;15.54;95.10;100673.97;10565832;28;20563;-70
2022/09/14 06:12:40;;;;;;;2.95;1.60;;;;;;;15.45;97.69;100667.19;10582923;28;20027;-71
2022/09/14 06:17:40;;;;;;;1.80;1.55;;;;;;;15.46;96.95;100660.66;10548627;28;20036;-71
2022/09/14 06:22:40;;;;;;;2.97;2.35;;;;;;;15.46;96.18;100665.28;10583686;28;20027;-70
2022/09/14 06:27:41;;;;;;;10.90;1.73;;;;;;;15.43;95.74;100666.59;10583656;28;20063;-71
2022/09/14 06:32:41;;;;;;;1.77;1.67;;;;;;;15.42;95.86;100658.66;10584266;28;20035;-72
2022/09/14 06:37:41;;;;;;;4.80;2.67;;;;;;;15.49;94.35;100654.72;10583364;28;20572;-71
2022/09/14 06:42:42;;;;;;;8.20;1.88;;;;;;;15.57;94.39;100645.34;10583931;28;20070;-71
2022/09/14 06:47:42;;;;;;;4.05;2.00;;;;;;;15.65;94.20;100652.38;10565010;28;20134;-71
2022/09/14 06:52:42;;;;;;;6.70;1.75;;;;;;;15.73;92.55;100658.34;10563596;28;20036;-70
2022/09/14 06:57:45;;;;;;;5.15;2.50;;;;;;;15.74;93.65;100648.25;10582123;28;20382;-71
2022/09/14 07:02:46;;;;;;;6.55;2.22;;;;;;;15.72;93.82;100645.75;10564390;28;20478;-70
2022/09/14 07:07:50;;;;;;;1.92;1.73;;;;;;;15.74;93.94;100640.88;10563852;28;20099;-71
2022/09/14 07:12:51;;;;;;;7.93;2.05;;;;;;;15.81;92.33;100640.75;10581634;28;20028;-71
2022/09/14 07:17:52;;;;;;;7.82;2.63;;;;;;;15.84;92.98;100636.72;10563290;28;20465;-70
2022/09/14 07:22:52;;;;;;;2.20;1.83;;;;;;;15.90;92.54;100647.53;10580957;28;20463;-72
2022/09/14 07:27:53;;;;;;;5.85;2.13;;;;;;;16.00;91.03;100649.66;10580048;28;20032;-70
2022/09/14 07:32:53;;;;;;;4.28;2.28;;;;;;;16.15;89.91;100662.81;10582058;28;20028;-72
2022/09/14 07:37:54;;;;;;;6.72;2.05;;;;;;;16.26;89.37;100656.50;10579365;28;20059;-71
2022/09/14 07:42:54;;;;;;;2.40;1.63;;;;;;;16.24;89.70;100658.63;10581538;28;20043;-71
2022/09/14 07:47:55;;;;;;;10.05;2.42;;;;;;;16.16;90.33;100645.34;10581736;28;20534;-71
2022/09/14 07:52:55;;;;;;;7.53;1.73;;;;;;;16.17;90.25;100645.09;10565152;28;20119;-70
2022/09/14 07:57:56;;;;;;;3.50;1.75;;;;;;;16.27;89.87;100652.69;10588887;28;20463;-70
2022/09/14 08:02:57;;;;;;;9.43;2.55;;;;;;;16.21;90.20;100650.94;10590546;28;20035;-70
2022/09/14 08:07:57;;;;;;;4.00;3.05;;;;;;;16.36;89.79;100642.22;10570929;28;20055;-71
2022/09/14 08:12:58;;;;;;;7.80;2.35;;;;;;;16.48;89.70;100643.81;10588661;28;20089;-72
2022/09/14 08:17:58;;;;;;;7.18;1.85;;;;;;;16.52;90.74;100639.53;10589032;28;20071;-71
2022/09/14 08:22:59;;;;;;;2.22;2.05;;;;;;;16.71;89.43;100639.34;10586954;28;20035;-71
2022/09/14 08:27:59;;;;;;;4.07;1.80;;;;;;;16.98;89.23;100641.53;10589711;28;20070;-71
2022/09/14 08:33:00;;;;;;;2.80;2.17;;;;;;;16.89;89.72;100646.56;10569459;28;20390;-70
2022/09/14 08:38:00;;;;;;;7.97;2.90;;;;;;;16.99;88.27;100659.59;10589408;28;20093;-70
2022/09/14 08:43:01;;;;;;;4.80;3.03;;;;;;;16.87;87.40;100649.53;10586919;28;20075;-70
2022/09/14 08:48:02;;;;;;;2.70;2.00;;;;;;;16.87;87.56;100646.78;10588344;28;20180;-70
2022/09/14 08:53:02;;;;;;;7.80;2.92;;;;;;;16.92;87.02;100633.22;10570509;28;20043;-70
2022/09/14 08:58:08;;;;;;;2.03;1.88;;;;;;;16.96;86.88;100636.28;10570340;28;20027;-71
2022/09/14 09:03:17;;;;;;;3.72;2.30;;;;;;;16.92;86.64;100630.47;10587836;28;20032;-71
2022/09/14 09:08:23;;;;;;;5.10;2.47;;;;;;;17.04;86.37;100638.63;10585784;28;20027;-71
2022/09/14 09:13:25;;;;;;;8.47;2.20;;;;;;;17.22;86.01;100650.41;10568101;28;20027;-71
2022/09/14 09:18:39;;;;;;;3.05;2.28;;;;;;;17.26;86.49;100646.09;10550638;28;20050;-72
2022/09/14 09:42:43;;;;;;;;;;;;;;;;;;;;;
2022/09/14 09:54:12;;;;;;;3.95;2.72;;;;;;;17.42;86.17;100629.69;10543157;28;20043;-74
2022/09/14 09:59:45;;;;;;;2.00;1.58;;;;;;;17.69;85.53;100633.66;10524732;28;20089;-74
2022/09/14 10:54:16;;;;;;;2.25;1.55;;;;;;;18.48;82.07;100623.22;10302808;28;20049;-73
2022/09/14 11:42:43;;;;;;;3.00;1.70;;;;;;;20.78;72.80;100613.84;10055074;29;20037;-74
2022/09/14 11:54:18;;;;;;;4.65;2.10;;;;;;;22.80;64.02;100609.25;10257621;28;20483;-74
2022/09/14 13:14:07;;;;;;;7.18;1.83;;;;;;;23.50;54.33;100556.50;10585281;27;20212;-74
2022/09/14 14:27:34;;;;;;;;;;;;;;;;;;;;;
2022/09/14 15:04:07;;;;;;;2.88;1.38;;;;;;;21.38;57.78;100483.88;10097825;29;20123;-74
2022/09/14 16:43:00;;;;;;;4.55;2.15;;;;;;;19.06;67.69;100527.50;10531694;28;20060;-73
2022/09/14 17:26:13;;;;;;;;;;;;;;;;;;;;;
2022/09/14 17:50:50;;;;;;;6.00;1.98;;;;;;;17.57;70.63;100563.38;9960213;29;20061;-73
2022/09/14 18:39:07;;;;;;;2.00;1.42;;;;;;;16.60;71.63;100596.50;9900123;29;20519;-73
2022/09/14 19:35:09;;;;;;;4.95;4.43;;;;;;;15.58;73.58;100634.22;10131990;29;20044;-76
2022/09/14 19:58:09;;;;;;;3.70;3.33;;;;;;;15.20;74.72;100634.66;10257353;29;20046;-76
2022/09/14 21:05:26;;;;;;;;;;;;;;;;;;;;;
2022/09/14 21:34:23;;;;;;;;;;;;;;;15.75;79.52;100666.28;10200602;29;20174;-75
2022/09/14 21:39:24;;;;;;;4.35;2.15;;;;;;;15.98;79.39;100668.16;10438878;28;19949;-74
2022/09/14 21:44:39;;;;;;;5.60;2.20;;;;;;;16.17;79.29;100671.59;10586401;28;20022;-75
2022/09/14 21:49:40;;;;;;;2.28;1.67;;;;;;;16.39;79.38;100675.34;10585538;28;20034;-74
2022/09/14 22:06:30;;;;;;;1.13;1.02;;;;;;;16.86;79.00;100686.16;10585432;28;20361;-74
2022/09/14 22:37:12;;;;;;;2.85;1.30;;;;;;;16.42;79.01;100690.44;10056649;29;20041;-74
2022/09/14 23:13:24;;;;;;;1.17;1.08;;;;;;;15.37;78.97;100707.63;10229353;29;20530;-74
2022/09/14 23:18:38;;;;;;;1.90;1.80;;;;;;;15.21;79.33;100707.22;10316177;28;20078;-74
2022/09/14 23:23:53;;;;;;;1.73;1.65;;;;;;;15.12;79.51;100716.78;10507015;28;20062;-74
2022/09/14 23:29:27;;;;;;;4.90;1.98;;;;;;;15.01;79.44;100721.16;10539518;28;20020;-74
2022/09/14 23:41:03;;;;;;;3.38;2.15;;;;;;;14.93;79.69;100709.72;10516176;28;20020;-74
2022/09/14 23:52:32;;;;;;;6.72;2.00;;;;;;;14.91;80.12;100707.25;10210450;29;20436;-74
2022/09/14 23:58:36;;;;;;;5.50;2.28;;;;;;;14.92;80.42;100710.81;10345585;28;20061;-74
